createdAt,value
2023-04-22T00:00:11.755Z,933.73
2023-04-22T00:00:39.675Z,933.73
2023-04-22T00:01:10.743Z,933.52
2023-04-22T00:01:42.014Z,933.52
2023-04-22T00:02:12.640Z,933.83
2023-04-22T00:02:43.543Z,933.83
2023-04-22T00:03:16.160Z,933.73
2023-04-22T00:03:46.014Z,933.73
2023-04-22T00:04:17.019Z,933.73
2023-04-22T00:04:48.034Z,933.73
2023-04-22T00:05:20.509Z,933.83
2023-04-22T00:05:49.591Z,933.83
2023-04-22T00:06:20.617Z,933.73
2023-04-22T00:06:51.947Z,933.73
2023-04-22T00:07:22.737Z,933.63
2023-04-22T00:07:53.948Z,933.63
2023-04-22T00:08:25.844Z,933.73
2023-04-22T00:08:55.569Z,933.73
2023-04-22T00:09:26.895Z,933.52
2023-04-22T00:09:57.482Z,933.52
2023-04-22T00:10:28.537Z,933.63
2023-04-22T00:10:59.573Z,933.63
2023-04-22T00:11:30.487Z,933.73
2023-04-22T00:12:01.420Z,933.73
2023-04-22T00:12:32.647Z,933.73
2023-04-22T00:13:03.813Z,933.73
2023-04-22T00:13:35.695Z,933.93
2023-04-22T00:14:05.391Z,933.93
2023-04-22T00:14:36.769Z,933.63
2023-04-22T00:15:10.257Z,933.63
2023-04-22T00:15:38.847Z,933.73
2023-04-22T00:16:10.974Z,933.52
2023-04-22T00:16:40.928Z,933.52
2023-04-22T00:17:11.612Z,933.93
2023-04-22T00:17:43.039Z,933.93
2023-04-22T00:18:14.134Z,933.63
2023-04-22T00:18:45.555Z,933.63
2023-04-22T00:19:15.559Z,933.73
2023-04-22T00:19:46.550Z,933.73
2023-04-22T00:20:17.651Z,933.63
2023-04-22T00:20:48.761Z,933.63
2023-04-22T00:21:19.679Z,933.73
2023-04-22T00:21:50.830Z,933.73
2023-04-22T00:22:21.746Z,933.63
2023-04-22T00:22:52.875Z,933.63
2023-04-22T00:23:23.728Z,933.63
2023-04-22T00:23:55.750Z,933.63
2023-04-22T00:24:25.667Z,933.73
2023-04-22T00:24:56.414Z,933.73
2023-04-22T00:25:27.733Z,933.63
2023-04-22T00:25:58.752Z,933.63
2023-04-22T00:26:29.952Z,933.73
2023-04-22T00:27:00.958Z,933.73
2023-04-22T00:27:32.149Z,933.52
2023-04-22T00:28:03.091Z,933.52
2023-04-22T00:28:33.680Z,933.73
2023-04-22T00:29:06.247Z,933.73
2023-04-22T00:29:35.464Z,933.73
2023-04-22T00:30:12.082Z,933.73
2023-04-22T00:30:38.040Z,933.52
2023-04-22T00:31:09.192Z,933.32
2023-04-22T00:31:39.596Z,933.32
2023-04-22T00:32:10.557Z,933.63
2023-04-22T00:32:41.772Z,933.63
2023-04-22T00:33:12.949Z,933.83
2023-04-22T00:33:43.541Z,933.83
2023-04-22T00:34:15.769Z,933.42
2023-04-22T00:34:45.551Z,933.42
2023-04-22T00:35:16.662Z,933.52
2023-04-22T00:35:47.958Z,933.52
2023-04-22T00:36:18.685Z,933.52
2023-04-22T00:36:49.991Z,933.52
2023-04-22T00:37:20.525Z,933.63
2023-04-22T00:37:51.671Z,933.63
2023-04-22T00:38:22.641Z,933.63
2023-04-22T00:38:53.633Z,933.63
2023-04-22T00:39:25.748Z,933.63
2023-04-22T00:39:55.643Z,933.63
2023-04-22T00:40:33.257Z,933.63
2023-04-22T00:40:58.437Z,933.63
2023-04-22T00:41:28.976Z,933.42
2023-04-22T00:41:59.943Z,933.42
2023-04-22T00:42:30.845Z,933.52
2023-04-22T00:43:02.345Z,933.52
2023-04-22T00:43:33.188Z,933.63
2023-04-22T00:44:04.141Z,933.63
2023-04-22T00:44:35.526Z,933.42
2023-04-22T00:45:09.618Z,933.42
2023-04-22T00:45:36.737Z,933.63
2023-04-22T00:46:07.834Z,933.63
2023-04-22T00:46:39.069Z,933.32
2023-04-22T00:47:09.777Z,933.63
2023-04-22T00:47:40.878Z,933.63
2023-04-22T00:48:11.999Z,933.63
2023-04-22T00:48:42.852Z,933.63
2023-04-22T00:49:14.155Z,933.52
2023-04-22T00:49:46.135Z,933.52
2023-04-22T00:50:15.600Z,933.42
2023-04-22T00:50:47.399Z,933.42
2023-04-22T00:51:17.632Z,933.52
2023-04-22T00:51:49.280Z,933.52
2023-04-22T00:52:19.899Z,933.52
2023-04-22T00:52:51.183Z,933.52
2023-04-22T00:53:21.952Z,933.52
2023-04-22T00:53:52.748Z,933.52
2023-04-22T00:54:23.640Z,933.52
2023-04-22T00:54:55.761Z,933.52
2023-04-22T00:55:25.904Z,933.52
2023-04-22T00:55:56.548Z,933.52
2023-04-22T00:56:28.057Z,933.32
2023-04-22T00:56:58.835Z,933.32
2023-04-22T00:57:29.981Z,933.63
2023-04-22T00:58:01.202Z,933.63
2023-04-22T00:58:31.948Z,933.42
2023-04-22T00:59:02.801Z,933.42
2023-04-22T00:59:34.143Z,933.63
2023-04-22T01:00:08.939Z,933.63
2023-04-22T01:00:36.376Z,933.63
2023-04-22T01:01:08.427Z,933.63
2023-04-22T01:01:37.706Z,933.63
2023-04-22T01:02:08.987Z,933.63
2023-04-22T01:02:40.400Z,933.63
2023-04-22T01:03:10.926Z,933.52
2023-04-22T01:03:42.072Z,933.52
2023-04-22T01:04:12.900Z,933.63
2023-04-22T01:04:43.821Z,933.63
2023-04-22T01:05:16.102Z,933.52
2023-04-22T01:05:45.889Z,933.52
2023-04-22T01:06:16.812Z,933.63
2023-04-22T01:06:48.007Z,933.63
2023-04-22T01:07:18.724Z,933.42
2023-04-22T01:07:49.725Z,933.42
2023-04-22T01:08:20.742Z,933.63
2023-04-22T01:08:51.591Z,933.63
2023-04-22T01:09:22.859Z,933.63
2023-04-22T01:09:53.936Z,933.63
2023-04-22T01:10:26.555Z,933.52
2023-04-22T01:10:56.394Z,933.52
2023-04-22T01:11:27.015Z,933.63
2023-04-22T01:11:58.013Z,933.63
2023-04-22T01:12:29.755Z,933.73
2023-04-22T01:12:59.724Z,933.73
2023-04-22T01:13:30.967Z,933.83
2023-04-22T01:14:01.895Z,933.83
2023-04-22T01:14:32.835Z,933.52
2023-04-22T01:15:07.280Z,933.52
2023-04-22T01:15:35.942Z,933.73
2023-04-22T01:16:05.974Z,933.73
2023-04-22T01:16:36.763Z,933.83
2023-04-22T01:17:08.490Z,933.83
2023-04-22T01:17:38.907Z,933.63
2023-04-22T01:18:10.017Z,933.73
2023-04-22T01:18:41.126Z,933.73
2023-04-22T01:19:11.798Z,933.73
2023-04-22T01:19:43.396Z,933.73
2023-04-22T01:20:14.260Z,933.63
2023-04-22T01:20:45.616Z,933.63
2023-04-22T01:21:16.226Z,933.83
2023-04-22T01:21:47.130Z,933.83
2023-04-22T01:22:18.597Z,933.73
2023-04-22T01:22:48.926Z,933.73
2023-04-22T01:23:20.402Z,933.83
2023-04-22T01:23:50.948Z,933.83
2023-04-22T01:24:21.851Z,933.73
2023-04-22T01:24:52.761Z,933.73
2023-04-22T01:25:23.992Z,933.73
2023-04-22T01:25:55.670Z,933.73
2023-04-22T01:26:25.745Z,933.83
2023-04-22T01:26:57.272Z,933.83
2023-04-22T01:27:28.161Z,933.63
2023-04-22T01:27:58.895Z,933.63
2023-04-22T01:28:29.990Z,933.73
2023-04-22T01:29:02.133Z,933.73
2023-04-22T01:29:31.954Z,933.63
2023-04-22T01:30:05.993Z,933.63
2023-04-22T01:30:33.822Z,933.63
2023-04-22T01:31:06.602Z,933.63
2023-04-22T01:31:35.969Z,933.52
2023-04-22T01:32:07.197Z,933.52
2023-04-22T01:32:39.755Z,933.73
2023-04-22T01:33:09.295Z,933.83
2023-04-22T01:33:40.020Z,933.83
2023-04-22T01:34:10.822Z,933.52
2023-04-22T01:34:42.010Z,933.52
2023-04-22T01:35:13.295Z,933.63
2023-04-22T01:35:43.816Z,933.63
2023-04-22T01:36:15.627Z,933.63
2023-04-22T01:36:45.963Z,933.63
2023-04-22T01:37:16.903Z,933.63
2023-04-22T01:37:48.042Z,933.63
2023-04-22T01:38:19.106Z,933.63
2023-04-22T01:38:50.054Z,933.63
2023-04-22T01:39:20.769Z,933.32
2023-04-22T01:39:52.095Z,933.32
2023-04-22T01:40:22.996Z,933.52
2023-04-22T01:40:53.614Z,933.52
2023-04-22T01:41:25.730Z,933.63
2023-04-22T01:41:55.571Z,933.63
2023-04-22T01:42:26.863Z,933.52
2023-04-22T01:42:58.127Z,933.52
2023-04-22T01:43:29.256Z,933.52
2023-04-22T01:44:00.326Z,933.52
2023-04-22T01:44:30.669Z,933.42
2023-04-22T01:45:04.765Z,933.42
2023-04-22T01:45:33.150Z,933.73
2023-04-22T01:46:03.727Z,933.73
2023-04-22T01:46:35.950Z,933.63
2023-04-22T01:47:05.893Z,933.63
2023-04-22T01:47:36.600Z,933.32
2023-04-22T01:48:07.961Z,933.32
2023-04-22T01:48:39.289Z,933.52
2023-04-22T01:49:09.906Z,933.42
2023-04-22T01:49:41.189Z,933.42
2023-04-22T01:50:12.115Z,933.42
2023-04-22T01:50:42.804Z,933.42
2023-04-22T01:51:15.312Z,933.52
2023-04-22T01:51:46.131Z,933.52
2023-04-22T01:52:15.666Z,933.63
2023-04-22T01:52:48.279Z,933.63
2023-04-22T01:53:18.146Z,933.63
2023-04-22T01:53:48.935Z,933.63
2023-04-22T01:54:19.913Z,933.73
2023-04-22T01:54:50.832Z,933.73
2023-04-22T01:55:21.756Z,933.32
2023-04-22T01:55:52.971Z,933.32
2023-04-22T01:56:24.253Z,933.32
2023-04-22T01:56:55.856Z,933.32
2023-04-22T01:57:25.843Z,933.42
2023-04-22T01:57:56.614Z,933.42
2023-04-22T01:58:27.922Z,933.42
2023-04-22T01:58:58.846Z,933.42
2023-04-22T01:59:29.924Z,933.32
2023-04-22T02:00:03.799Z,933.32
2023-04-22T02:00:32.059Z,933.52
2023-04-22T02:01:03.217Z,933.52
2023-04-22T02:01:33.923Z,933.42
2023-04-22T02:02:06.067Z,933.42
2023-04-22T02:02:35.954Z,933.63
2023-04-22T02:03:06.906Z,933.63
2023-04-22T02:03:39.752Z,933.42
2023-04-22T02:04:09.066Z,933.22
2023-04-22T02:04:39.725Z,933.22
2023-04-22T02:05:10.951Z,933.52
2023-04-22T02:05:41.736Z,933.52
2023-04-22T02:06:12.695Z,933.73
2023-04-22T02:06:43.770Z,933.73
2023-04-22T02:07:16.154Z,933.63
2023-04-22T02:07:45.976Z,933.63
2023-04-22T02:08:16.851Z,933.42
2023-04-22T02:08:48.150Z,933.42
2023-04-22T02:09:18.790Z,933.52
2023-04-22T02:09:50.888Z,933.52
2023-04-22T02:10:21.195Z,933.32
2023-04-22T02:10:51.629Z,933.32
2023-04-22T02:11:23.111Z,933.22
2023-04-22T02:11:53.826Z,933.22
2023-04-22T02:12:26.117Z,933.32
2023-04-22T02:12:55.939Z,933.32
2023-04-22T02:13:26.869Z,933.42
2023-04-22T02:13:57.884Z,933.42
2023-04-22T02:14:28.444Z,933.52
2023-04-22T02:14:59.772Z,933.52
2023-04-22T02:15:33.670Z,933.63
2023-04-22T02:16:02.001Z,933.63
2023-04-22T02:16:33.509Z,933.42
2023-04-22T02:17:03.527Z,933.42
2023-04-22T02:17:35.662Z,933.73
2023-04-22T02:18:06.217Z,933.73
2023-04-22T02:18:36.665Z,933.52
2023-04-22T02:19:07.693Z,933.52
2023-04-22T02:19:39.224Z,933.52
2023-04-22T02:20:10.262Z,933.42
2023-04-22T02:20:41.278Z,933.42
2023-04-22T02:21:11.800Z,933.63
2023-04-22T02:21:42.838Z,933.63
2023-04-22T02:22:14.049Z,933.83
2023-04-22T02:22:45.945Z,933.83
2023-04-22T02:23:16.177Z,933.73
2023-04-22T02:23:47.098Z,933.73
2023-04-22T02:24:17.476Z,933.52
2023-04-22T02:24:48.818Z,933.52
2023-04-22T02:25:20.027Z,933.73
2023-04-22T02:25:50.950Z,933.73
2023-04-22T02:26:21.703Z,933.83
2023-04-22T02:26:52.751Z,933.83
2023-04-22T02:27:23.721Z,933.73
2023-04-22T02:27:55.691Z,933.73
2023-04-22T02:28:26.019Z,933.52
2023-04-22T02:28:58.321Z,933.52
2023-04-22T02:29:27.850Z,933.52
2023-04-22T02:29:59.138Z,933.52
2023-04-22T02:30:33.142Z,933.52
2023-04-22T02:31:01.483Z,933.52
2023-04-22T02:31:31.924Z,933.42
2023-04-22T02:32:03.223Z,933.42
2023-04-22T02:32:34.133Z,933.63
2023-04-22T02:33:05.815Z,933.63
2023-04-22T02:33:35.968Z,933.73
2023-04-22T02:34:06.748Z,933.73
2023-04-22T02:34:38.196Z,933.52
2023-04-22T02:35:09.053Z,933.63
2023-04-22T02:35:39.615Z,933.63
2023-04-22T02:36:11.025Z,933.73
2023-04-22T02:36:41.898Z,933.73
2023-04-22T02:37:12.901Z,933.73
2023-04-22T02:37:44.168Z,933.73
2023-04-22T02:38:15.621Z,933.73
2023-04-22T02:38:45.860Z,933.73
2023-04-22T02:39:16.598Z,933.52
2023-04-22T02:39:48.309Z,933.52
2023-04-22T02:40:18.657Z,933.63
2023-04-22T02:40:49.948Z,933.63
2023-04-22T02:41:20.954Z,933.73
2023-04-22T02:41:53.558Z,933.73
2023-04-22T02:42:22.941Z,933.73
2023-04-22T02:42:53.797Z,933.73
2023-04-22T02:43:25.866Z,933.52
2023-04-22T02:43:55.757Z,933.52
2023-04-22T02:44:27.029Z,933.73
2023-04-22T02:44:57.544Z,933.73
2023-04-22T02:45:31.770Z,933.52
2023-04-22T02:45:59.799Z,933.52
2023-04-22T02:46:30.848Z,933.42
2023-04-22T02:47:01.780Z,933.42
2023-04-22T02:47:33.481Z,933.63
2023-04-22T02:48:04.215Z,933.63
2023-04-22T02:48:35.656Z,933.52
2023-04-22T02:49:05.940Z,933.52
2023-04-22T02:49:37.345Z,933.73
2023-04-22T02:50:08.020Z,933.73
2023-04-22T02:50:39.142Z,933.52
2023-04-22T02:51:10.156Z,933.63
2023-04-22T02:51:41.187Z,933.63
2023-04-22T02:52:12.159Z,933.52
2023-04-22T02:52:42.882Z,933.52
2023-04-22T02:53:13.869Z,933.63
2023-04-22T02:53:45.896Z,933.63
2023-04-22T02:54:15.765Z,933.63
2023-04-22T02:54:46.866Z,933.63
2023-04-22T02:55:18.238Z,933.83
2023-04-22T02:55:48.741Z,933.83
2023-04-22T02:56:19.813Z,933.73
2023-04-22T02:56:51.053Z,933.73
2023-04-22T02:57:21.842Z,933.52
2023-04-22T02:57:53.216Z,933.52
2023-04-22T02:58:23.953Z,933.63
2023-04-22T02:58:55.821Z,933.63
2023-04-22T02:59:26.019Z,933.63
2023-04-22T02:59:57.123Z,933.63
2023-04-22T03:00:31.278Z,933.63
2023-04-22T03:00:59.749Z,933.63
2023-04-22T03:01:30.034Z,933.63
2023-04-22T03:02:01.067Z,933.63
2023-04-22T03:02:32.087Z,933.42
2023-04-22T03:03:03.350Z,933.42
2023-04-22T03:03:34.128Z,933.63
2023-04-22T03:04:07.640Z,933.63
2023-04-22T03:04:36.174Z,933.73
2023-04-22T03:05:06.586Z,933.73
2023-04-22T03:05:37.933Z,933.63
2023-04-22T03:06:08.940Z,933.52
2023-04-22T03:06:39.817Z,933.52
2023-04-22T03:07:11.146Z,933.63
2023-04-22T03:07:41.971Z,933.63
2023-04-22T03:08:12.557Z,933.42
2023-04-22T03:08:43.866Z,933.42
2023-04-22T03:09:15.706Z,933.63
2023-04-22T03:09:45.942Z,933.63
2023-04-22T03:10:16.741Z,933.73
2023-04-22T03:10:47.759Z,933.73
2023-04-22T03:11:19.389Z,933.52
2023-04-22T03:11:49.804Z,933.52
2023-04-22T03:12:20.950Z,933.52
2023-04-22T03:12:51.794Z,933.52
2023-04-22T03:13:22.790Z,933.73
2023-04-22T03:13:54.292Z,933.73
2023-04-22T03:14:25.982Z,933.52
2023-04-22T03:14:56.118Z,933.52
2023-04-22T03:15:29.769Z,933.83
2023-04-22T03:15:57.586Z,933.83
2023-04-22T03:16:28.920Z,933.83
2023-04-22T03:16:59.813Z,933.83
2023-04-22T03:17:30.750Z,933.52
2023-04-22T03:18:01.906Z,933.52
2023-04-22T03:18:32.781Z,933.73
2023-04-22T03:19:04.231Z,933.73
2023-04-22T03:19:35.888Z,933.52
2023-04-22T03:20:05.878Z,933.52
2023-04-22T03:20:36.528Z,933.63
2023-04-22T03:21:07.820Z,933.63
2023-04-22T03:21:38.968Z,933.73
2023-04-22T03:22:10.013Z,933.83
2023-04-22T03:22:41.065Z,933.83
2023-04-22T03:23:11.698Z,933.63
2023-04-22T03:23:42.725Z,933.63
2023-04-22T03:24:13.839Z,933.73
2023-04-22T03:24:45.811Z,933.73
2023-04-22T03:25:15.849Z,933.73
2023-04-22T03:25:47.258Z,933.73
2023-04-22T03:26:18.053Z,933.63
2023-04-22T03:26:48.963Z,933.63
2023-04-22T03:27:19.805Z,933.73
2023-04-22T03:27:50.873Z,933.73
2023-04-22T03:28:21.756Z,933.93
2023-04-22T03:28:52.794Z,933.93
2023-04-22T03:29:23.917Z,933.73
2023-04-22T03:29:56.197Z,933.73
2023-04-22T03:30:28.796Z,933.52
2023-04-22T03:30:57.411Z,933.52
2023-04-22T03:31:28.231Z,933.73
2023-04-22T03:31:59.117Z,933.73
2023-04-22T03:32:30.484Z,933.93
2023-04-22T03:33:00.959Z,933.93
2023-04-22T03:33:32.118Z,933.73
2023-04-22T03:34:02.736Z,933.73
2023-04-22T03:34:35.777Z,933.83
2023-04-22T03:35:05.988Z,933.83
2023-04-22T03:35:36.269Z,933.93
2023-04-22T03:36:07.125Z,933.93
2023-04-22T03:36:38.217Z,933.93
2023-04-22T03:37:09.222Z,933.73
2023-04-22T03:37:39.482Z,933.73
2023-04-22T03:38:11.087Z,933.93
2023-04-22T03:38:41.839Z,933.93
2023-04-22T03:39:12.996Z,933.63
2023-04-22T03:42:20.210Z,933.83
2023-04-22T03:42:49.936Z,933.83
2023-04-22T03:43:21.057Z,933.63
2023-04-22T03:43:51.777Z,933.63
2023-04-22T03:44:22.719Z,933.93
2023-04-22T03:44:54.100Z,933.93
2023-04-22T03:45:29.126Z,933.63
2023-04-22T03:45:55.896Z,933.63
2023-04-22T03:46:26.956Z,933.83
2023-04-22T03:46:57.910Z,933.83
2023-04-22T03:47:29.345Z,933.73
2023-04-22T03:48:00.285Z,933.73
2023-04-22T03:48:30.934Z,933.83
2023-04-22T03:49:01.874Z,933.83
2023-04-22T03:49:33.122Z,933.93
2023-04-22T03:50:03.942Z,933.93
2023-04-22T03:50:35.861Z,933.83
2023-04-22T03:51:05.679Z,933.83
2023-04-22T03:51:37.101Z,933.83
2023-04-22T03:52:08.297Z,933.83
2023-04-22T03:52:38.758Z,933.93
2023-04-22T03:53:09.870Z,933.83
2023-04-22T03:53:41.092Z,933.83
2023-04-22T03:54:12.128Z,933.93
2023-04-22T03:54:42.781Z,933.93
2023-04-22T03:55:13.559Z,933.83
2023-04-22T03:55:45.706Z,933.83
2023-04-22T03:56:15.893Z,933.93
2023-04-22T03:56:47.145Z,933.93
2023-04-22T03:57:17.758Z,933.93
2023-04-22T03:57:48.688Z,933.93
2023-04-22T03:58:20.062Z,933.83
2023-04-22T03:58:51.193Z,933.83
2023-04-22T03:59:22.224Z,933.93
2023-04-22T03:59:53.088Z,933.93
2023-04-22T04:00:28.014Z,933.93
2023-04-22T04:00:56.223Z,933.93
2023-04-22T04:01:26.143Z,933.93
2023-04-22T04:01:57.478Z,933.93
2023-04-22T04:02:27.818Z,934.13
2023-04-22T04:02:59.068Z,934.13
2023-04-22T04:03:31.195Z,933.93
2023-04-22T04:04:02.435Z,933.93
2023-04-22T04:04:31.973Z,933.93
2023-04-22T04:05:02.759Z,933.93
2023-04-22T04:05:34.721Z,933.83
2023-04-22T04:06:06.046Z,933.83
2023-04-22T04:06:35.998Z,934.03
2023-04-22T04:07:06.961Z,934.03
2023-04-22T04:07:37.693Z,933.83
2023-04-22T04:08:10.049Z,934.03
2023-04-22T04:08:39.831Z,934.03
2023-04-22T04:09:10.903Z,933.83
2023-04-22T04:09:42.302Z,933.83
2023-04-22T04:10:12.723Z,934.03
2023-04-22T04:10:43.991Z,934.03
2023-04-22T04:11:18.232Z,934.03
2023-04-22T04:11:46.460Z,934.03
2023-04-22T04:12:17.150Z,934.13
2023-04-22T04:12:48.284Z,934.13
2023-04-22T04:13:19.139Z,933.93
2023-04-22T04:13:49.968Z,933.93
2023-04-22T04:14:21.403Z,934.03
2023-04-22T04:14:52.031Z,934.03
2023-04-22T04:15:26.186Z,934.03
2023-04-22T04:15:54.249Z,934.03
2023-04-22T04:16:25.746Z,934.03
2023-04-22T04:16:55.860Z,934.03
2023-04-22T04:17:26.737Z,933.93
2023-04-22T04:17:57.843Z,933.93
2023-04-22T04:18:29.169Z,934.03
2023-04-22T04:18:59.606Z,934.03
2023-04-22T04:19:30.942Z,934.13
2023-04-22T04:20:01.904Z,934.13
2023-04-22T04:20:32.827Z,933.93
2023-04-22T04:21:04.322Z,933.93
2023-04-22T04:21:35.844Z,934.03
2023-04-22T04:22:06.035Z,934.03
2023-04-22T04:22:36.966Z,933.93
2023-04-22T04:23:08.115Z,933.93
2023-04-22T04:23:39.475Z,934.13
2023-04-22T04:24:10.059Z,934.03
2023-04-22T04:24:40.847Z,934.03
2023-04-22T04:25:12.811Z,933.93
2023-04-22T04:25:43.402Z,933.93
2023-04-22T04:26:14.486Z,934.13
2023-04-22T04:26:46.055Z,934.13
2023-04-22T04:27:16.067Z,933.93
2023-04-22T04:27:47.069Z,933.93
2023-04-22T04:28:18.254Z,934.03
2023-04-22T04:28:50.697Z,934.03
2023-04-22T04:29:20.108Z,934.13
2023-04-22T04:29:51.215Z,934.13
2023-04-22T04:30:25.443Z,934.13
2023-04-22T04:30:59.385Z,934.13
2023-04-22T04:31:24.232Z,933.83
2023-04-22T04:31:56.017Z,933.83
2023-04-22T04:32:26.233Z,934.03
2023-04-22T04:40:55.998Z,934.03
2023-04-22T04:41:14.438Z,933.93
2023-04-22T04:41:44.213Z,933.93
2023-04-22T04:42:16.417Z,933.93
2023-04-22T04:42:46.301Z,933.93
2023-04-22T04:43:17.176Z,934.03
2023-04-22T04:43:48.095Z,934.03
2023-04-22T04:44:19.231Z,934.03
2023-04-22T04:44:50.292Z,934.03
2023-04-22T04:45:24.094Z,933.73
2023-04-22T04:45:52.169Z,933.73
2023-04-22T04:46:23.402Z,934.03
2023-04-22T04:46:54.151Z,934.03
2023-04-22T04:47:26.113Z,933.63
2023-04-22T04:47:56.126Z,933.63
2023-04-22T04:48:27.205Z,933.83
2023-04-22T04:48:58.231Z,933.83
2023-04-22T04:49:29.306Z,933.83
2023-04-22T04:49:59.842Z,933.83
2023-04-22T04:50:31.037Z,933.83
2023-04-22T04:51:02.330Z,933.83
2023-04-22T04:51:33.057Z,933.83
2023-04-22T04:52:04.345Z,933.83
2023-04-22T04:52:36.131Z,933.93
2023-04-22T04:53:05.926Z,933.93
2023-04-22T04:53:37.159Z,934.03
2023-04-22T04:54:08.410Z,934.03
2023-04-22T04:54:38.945Z,934.03
2023-04-22T04:55:10.620Z,933.93
2023-04-22T04:55:41.323Z,933.93
2023-04-22T04:56:11.998Z,933.73
2023-04-22T04:56:42.981Z,933.73
2023-04-22T04:57:14.029Z,934.03
2023-04-22T04:57:45.910Z,934.03
2023-04-22T04:58:16.186Z,933.83
2023-04-22T04:58:47.299Z,933.83
2023-04-22T04:59:18.403Z,933.83
2023-04-22T04:59:49.788Z,933.83
2023-04-22T05:00:23.166Z,933.93
2023-04-22T05:00:52.446Z,933.93
2023-04-22T05:01:22.212Z,933.93
2023-04-22T05:01:53.258Z,933.93
2023-04-22T05:02:24.382Z,933.73
2023-04-22T05:02:56.050Z,933.73
2023-04-22T05:03:26.192Z,933.93
2023-04-22T05:03:57.435Z,933.93
2023-04-22T05:04:28.453Z,934.03
2023-04-22T05:04:59.286Z,934.03
2023-04-22T05:05:30.343Z,933.73
2023-04-22T05:06:01.207Z,933.73
2023-04-22T05:06:31.989Z,933.73
2023-04-22T05:07:03.073Z,933.73
2023-04-22T05:07:34.342Z,934.24
2023-04-22T05:08:06.120Z,934.24
2023-04-22T05:08:36.086Z,933.93
2023-04-22T05:09:06.960Z,933.93
2023-04-22T05:09:38.320Z,934.03
2023-04-22T05:10:08.972Z,933.93
2023-04-22T05:10:39.791Z,933.93
2023-04-22T05:11:11.172Z,933.93
2023-04-22T05:11:42.000Z,933.93
2023-04-22T05:12:12.907Z,933.83
2023-04-22T05:12:43.940Z,933.83
2023-04-22T05:13:15.881Z,933.93
2023-04-22T05:13:46.111Z,933.93
2023-04-22T05:14:17.065Z,933.83
2023-04-22T05:14:48.093Z,933.83
2023-04-22T05:15:22.121Z,934.13
2023-04-22T05:15:50.306Z,934.13
2023-04-22T05:16:20.999Z,933.83
2023-04-22T05:16:52.332Z,933.83
2023-04-22T05:17:22.838Z,934.03
2023-04-22T05:17:53.863Z,934.03
2023-04-22T05:18:25.839Z,933.93
2023-04-22T05:18:55.988Z,933.93
2023-04-22T05:19:27.298Z,934.03
2023-04-22T05:19:58.237Z,934.03
2023-04-22T05:20:29.108Z,933.93
2023-04-22T05:21:01.933Z,933.93
2023-04-22T05:21:31.212Z,934.03
2023-04-22T05:22:01.938Z,934.03
2023-04-22T05:22:33.796Z,933.83
2023-04-22T05:23:04.679Z,933.83
2023-04-22T05:23:36.097Z,934.03
2023-04-22T05:24:06.009Z,934.03
2023-04-22T05:24:37.336Z,934.03
2023-04-22T05:25:08.022Z,934.03
2023-04-22T05:25:39.141Z,934.13
2023-04-22T05:26:10.267Z,933.93
2023-04-22T05:26:41.381Z,933.93
2023-04-22T05:27:12.648Z,933.73
2023-04-22T05:27:43.033Z,933.73
2023-04-22T05:28:14.066Z,934.03
2023-04-22T05:28:45.890Z,934.03
2023-04-22T05:29:16.085Z,934.13
2023-04-22T05:29:47.011Z,934.13
2023-04-22T05:30:21.151Z,934.13
2023-04-22T05:30:50.056Z,934.13
2023-04-22T05:31:20.152Z,934.03
2023-04-22T05:31:51.129Z,934.03
2023-04-22T05:32:22.218Z,934.13
2023-04-22T05:32:53.292Z,934.13
2023-04-22T05:33:24.212Z,934.03
2023-04-22T05:33:56.257Z,934.03
2023-04-22T05:34:25.901Z,934.13
2023-04-22T05:34:57.014Z,934.13
2023-04-22T05:35:28.380Z,934.13
2023-04-22T05:35:58.867Z,934.13
2023-04-22T05:36:31.418Z,934.13
2023-04-22T05:37:01.259Z,934.13
2023-04-22T05:37:32.527Z,934.03
2023-04-22T05:38:03.295Z,934.03
2023-04-22T05:38:33.886Z,934.13
2023-04-22T05:39:06.069Z,934.13
2023-04-22T05:39:35.928Z,933.93
2023-04-22T05:40:06.906Z,933.93
2023-04-22T05:40:38.368Z,934.24
2023-04-22T05:41:09.277Z,933.93
2023-04-22T05:41:40.134Z,933.93
2023-04-22T05:42:11.285Z,933.93
2023-04-22T05:42:42.052Z,933.93
2023-04-22T05:43:13.149Z,933.93
2023-04-22T05:43:44.274Z,933.93
2023-04-22T05:44:18.099Z,934.03
2023-04-22T05:44:47.471Z,934.03
2023-04-22T05:45:20.424Z,933.93
2023-04-22T05:45:48.313Z,933.93
2023-04-22T05:46:19.007Z,933.93
2023-04-22T05:46:50.059Z,933.93
2023-04-22T05:47:21.195Z,934.03
2023-04-22T05:47:52.117Z,934.03
2023-04-22T05:48:23.025Z,934.13
2023-04-22T05:48:54.189Z,934.13
2023-04-22T05:49:25.766Z,934.03
2023-04-22T05:49:55.831Z,934.03
2023-04-22T05:50:27.196Z,934.13
2023-04-22T05:50:58.342Z,934.13
2023-04-22T05:51:28.912Z,933.93
2023-04-22T05:52:01.449Z,933.93
2023-04-22T05:52:33.864Z,934.03
2023-04-22T05:53:02.125Z,934.03
2023-04-22T05:53:33.477Z,934.03
2023-04-22T05:54:04.248Z,934.03
2023-04-22T05:54:36.020Z,933.93
2023-04-22T05:55:06.048Z,933.93
2023-04-22T05:55:37.467Z,934.03
2023-04-22T05:56:08.188Z,934.03
2023-04-22T05:56:39.030Z,933.83
2023-04-22T05:57:10.056Z,933.83
2023-04-22T05:57:41.233Z,933.83
2023-04-22T05:58:11.877Z,933.93
2023-04-22T05:58:43.176Z,933.93
2023-04-22T05:59:14.037Z,934.03
2023-04-22T05:59:46.228Z,934.03
2023-04-22T06:00:19.748Z,933.93
2023-04-22T06:00:47.877Z,933.93
2023-04-22T06:01:18.428Z,934.03
2023-04-22T06:01:49.336Z,934.03
2023-04-22T06:02:20.277Z,933.93
2023-04-22T06:02:51.227Z,933.93
2023-04-22T06:03:22.353Z,933.93
2023-04-22T06:03:53.273Z,933.93
2023-04-22T06:04:24.607Z,934.03
2023-04-22T06:04:56.990Z,934.03
2023-04-22T06:05:26.642Z,934.03
2023-04-22T06:05:57.357Z,934.03
2023-04-22T06:06:28.217Z,934.24
2023-04-22T06:06:59.057Z,934.24
2023-04-22T06:07:30.240Z,934.13
2023-04-22T06:08:01.117Z,934.13
2023-04-22T06:08:33.046Z,934.03
2023-04-22T06:09:03.419Z,934.03
2023-04-22T06:09:34.504Z,934.13
2023-04-22T06:10:06.201Z,934.13
2023-04-22T06:10:36.494Z,934.13
2023-04-22T06:11:07.262Z,934.13
2023-04-22T06:11:38.195Z,934.03
2023-04-22T06:12:09.106Z,934.03
2023-04-22T06:12:40.177Z,934.03
2023-04-22T06:13:10.861Z,933.93
2023-04-22T06:13:41.871Z,933.93
2023-04-22T06:14:13.097Z,934.13
2023-04-22T06:14:43.886Z,934.13
2023-04-22T06:15:18.985Z,934.03
2023-04-22T06:15:46.274Z,934.03
2023-04-22T06:16:17.237Z,934.03
2023-04-22T06:16:48.198Z,934.03
2023-04-22T06:17:19.060Z,934.03
2023-04-22T06:17:50.157Z,934.03
2023-04-22T06:18:20.917Z,934.13
2023-04-22T06:18:52.308Z,934.13
2023-04-22T06:19:24.296Z,934.13
2023-04-22T06:19:54.868Z,934.13
2023-04-22T06:20:26.956Z,933.93
2023-04-22T06:20:56.283Z,933.93
2023-04-22T06:21:27.292Z,934.13
2023-04-22T06:21:58.406Z,934.13
2023-04-22T06:22:29.219Z,933.83
2023-04-22T06:23:00.417Z,933.83
2023-04-22T06:23:33.576Z,934.03
2023-04-22T06:24:03.775Z,934.03
2023-04-22T06:24:33.763Z,933.93
2023-04-22T06:25:03.954Z,933.93
2023-04-22T06:25:36.492Z,934.03
2023-04-22T06:26:06.543Z,934.03
2023-04-22T06:26:37.325Z,934.13
2023-04-22T06:27:08.419Z,934.13
2023-04-22T06:27:38.931Z,933.73
2023-04-22T06:28:10.178Z,933.83
2023-04-22T06:28:41.059Z,933.83
2023-04-22T06:29:13.266Z,934.03
2023-04-22T06:29:43.308Z,934.03
2023-04-22T06:30:18.554Z,934.03
2023-04-22T06:30:50.747Z,934.03
2023-04-22T06:31:17.648Z,934.03
2023-04-22T06:31:47.342Z,934.03
2023-04-22T06:32:18.080Z,934.03
2023-04-22T06:32:49.646Z,934.03
2023-04-22T06:33:20.523Z,934.03
2023-04-22T06:33:52.211Z,934.03
2023-04-22T06:34:22.361Z,933.93
2023-04-22T06:34:53.174Z,933.93
2023-04-22T06:35:24.424Z,934.13
2023-04-22T06:35:56.100Z,934.13
2023-04-22T06:36:29.019Z,933.93
2023-04-22T06:36:57.005Z,933.93